sensor_id;sensor_type;location;lat;lon;timestamp;temperature;humidity
10143;DHT22;5112;54.088;13.446;2023-11-21T00:00:19;6.80;99.90
10143;DHT22;5112;54.088;13.446;2023-11-21T00:10:21;6.70;99.90
10143;DHT22;5112;54.088;13.446;2023-11-21T00:20:24;6.80;99.90
10143;DHT22;5112;54.088;13.446;2023-11-21T00:30:25;6.80;99.90
10143;DHT22;5112;54.088;13.446;2023-11-21T00:40:29;6.80;99.90
10143;DHT22;5112;54.088;13.446;2023-11-21T00:50:31;6.80;99.90
10143;DHT22;5112;54.088;13.446;2023-11-21T01:00:34;6.80;99.90
10143;DHT22;5112;54.088;13.446;2023-11-21T01:10:35;6.70;99.90
10143;DHT22;5112;54.088;13.446;2023-11-21T01:20:38;6.60;99.90
10143;DHT22;5112;54.088;13.446;2023-11-21T01:30:40;6.60;99.90
10143;DHT22;5112;54.088;13.446;2023-11-21T01:40:43;6.60;99.90
10143;DHT22;5112;54.088;13.446;2023-11-21T01:50:45;6.50;99.90
10143;DHT22;5112;54.088;13.446;2023-11-21T02:00:48;6.40;99.90
10143;DHT22;5112;54.088;13.446;2023-11-21T02:10:51;6.50;99.90
10143;DHT22;5112;54.088;13.446;2023-11-21T02:20:55;6.50;99.90
10143;DHT22;5112;54.088;13.446;2023-11-21T02:30:58;6.40;99.90
10143;DHT22;5112;54.088;13.446;2023-11-21T02:40:59;6.50;99.90
10143;DHT22;5112;54.088;13.446;2023-11-21T02:51:03;6.60;99.90
10143;DHT22;5112;54.088;13.446;2023-11-21T03:01:05;6.50;99.90
10143;DHT22;5112;54.088;13.446;2023-11-21T03:11:09;6.50;99.90
10143;DHT22;5112;54.088;13.446;2023-11-21T03:21:11;6.70;99.90
10143;DHT22;5112;54.088;13.446;2023-11-21T03:31:15;6.70;99.90
10143;DHT22;5112;54.088;13.446;2023-11-21T03:41:18;6.70;99.90
10143;DHT22;5112;54.088;13.446;2023-11-21T03:51:21;6.60;99.90
10143;DHT22;5112;54.088;13.446;2023-11-21T04:01:23;6.50;99.90
10143;DHT22;5112;54.088;13.446;2023-11-21T04:11:26;6.60;99.90
10143;DHT22;5112;54.088;13.446;2023-11-21T04:21:30;6.50;99.90
10143;DHT22;5112;54.088;13.446;2023-11-21T04:31:33;6.60;99.90
10143;DHT22;5112;54.088;13.446;2023-11-21T04:41:35;6.60;99.90
10143;DHT22;5112;54.088;13.446;2023-11-21T04:51:40;6.50;99.90
10143;DHT22;5112;54.088;13.446;2023-11-21T05:01:42;6.40;99.90
10143;DHT22;5112;54.088;13.446;2023-11-21T05:11:45;6.50;99.90
10143;DHT22;5112;54.088;13.446;2023-11-21T05:21:47;6.50;99.90
10143;DHT22;5112;54.088;13.446;2023-11-21T05:31:50;6.40;99.90
10143;DHT22;5112;54.088;13.446;2023-11-21T05:41:51;6.30;99.90
10143;DHT22;5112;54.088;13.446;2023-11-21T05:51:56;6.30;99.90
10143;DHT22;5112;54.088;13.446;2023-11-21T06:01:57;6.30;99.90
10143;DHT22;5112;54.088;13.446;2023-11-21T06:12:00;6.30;99.90
10143;DHT22;5112;54.088;13.446;2023-11-21T06:22:03;6.20;99.90
10143;DHT22;5112;54.088;13.446;2023-11-21T06:32:07;6.20;99.90
10143;DHT22;5112;54.088;13.446;2023-11-21T06:42:09;6.10;99.90
10143;DHT22;5112;54.088;13.446;2023-11-21T06:52:12;6.00;99.90
10143;DHT22;5112;54.088;13.446;2023-11-21T07:02:14;5.80;99.90
10143;DHT22;5112;54.088;13.446;2023-11-21T07:12:20;5.80;99.90
10143;DHT22;5112;54.088;13.446;2023-11-21T07:22:24;5.70;99.90
10143;DHT22;5112;54.088;13.446;2023-11-21T07:32:27;5.50;99.90
10143;DHT22;5112;54.088;13.446;2023-11-21T07:42:28;5.60;99.90
10143;DHT22;5112;54.088;13.446;2023-11-21T07:52:31;5.60;99.90
10143;DHT22;5112;54.088;13.446;2023-11-21T08:02:33;5.60;99.90
10143;DHT22;5112;54.088;13.446;2023-11-21T08:12:36;5.70;99.90
10143;DHT22;5112;54.088;13.446;2023-11-21T08:22:38;5.80;99.90
10143;DHT22;5112;54.088;13.446;2023-11-21T08:32:43;5.90;99.90
10143;DHT22;5112;54.088;13.446;2023-11-21T08:42:44;5.90;99.90
10143;DHT22;5112;54.088;13.446;2023-11-21T08:52:48;5.80;99.90
10143;DHT22;5112;54.088;13.446;2023-11-21T09:02:50;5.70;99.90
10143;DHT22;5112;54.088;13.446;2023-11-21T09:12:53;5.70;99.90
10143;DHT22;5112;54.088;13.446;2023-11-21T09:22:55;5.70;99.90
10143;DHT22;5112;54.088;13.446;2023-11-21T09:32:58;5.60;99.90
10143;DHT22;5112;54.088;13.446;2023-11-21T09:43:05;5.60;99.90
10143;DHT22;5112;54.088;13.446;2023-11-21T09:53:13;5.50;99.90
10143;DHT22;5112;54.088;13.446;2023-11-21T10:03:18;5.30;99.90
10143;DHT22;5112;54.088;13.446;2023-11-21T10:13:21;5.20;99.90
10143;DHT22;5112;54.088;13.446;2023-11-21T10:23:23;5.20;99.90
10143;DHT22;5112;54.088;13.446;2023-11-21T10:33:30;5.20;99.90
10143;DHT22;5112;54.088;13.446;2023-11-21T10:43:33;5.00;99.90
10143;DHT22;5112;54.088;13.446;2023-11-21T10:53:38;4.90;99.90
10143;DHT22;5112;54.088;13.446;2023-11-21T11:03:41;4.80;99.90
10143;DHT22;5112;54.088;13.446;2023-11-21T11:13:45;4.90;99.90
10143;DHT22;5112;54.088;13.446;2023-11-21T11:23:58;4.90;99.90
10143;DHT22;5112;54.088;13.446;2023-11-21T11:34:17;4.70;99.90
10143;DHT22;5112;54.088;13.446;2023-11-21T11:44:51;4.80;99.90
10143;DHT22;5112;54.088;13.446;2023-11-21T11:54:55;4.90;99.90
10143;DHT22;5112;54.088;13.446;2023-11-21T12:04:57;5.20;99.90
10143;DHT22;5112;54.088;13.446;2023-11-21T12:15:00;5.30;99.90
10143;DHT22;5112;54.088;13.446;2023-11-21T12:25:01;5.40;99.90
10143;DHT22;5112;54.088;13.446;2023-11-21T12:35:06;5.40;99.90
10143;DHT22;5112;54.088;13.446;2023-11-21T12:45:18;5.30;99.90
10143;DHT22;5112;54.088;13.446;2023-11-21T12:55:22;5.40;99.90
10143;DHT22;5112;54.088;13.446;2023-11-21T13:05:25;5.40;99.90
10143;DHT22;5112;54.088;13.446;2023-11-21T13:15:28;5.30;99.90
10143;DHT22;5112;54.088;13.446;2023-11-21T13:25:31;5.40;99.90
10143;DHT22;5112;54.088;13.446;2023-11-21T13:35:36;5.20;99.90
10143;DHT22;5112;54.088;13.446;2023-11-21T13:45:43;5.10;99.90
10143;DHT22;5112;54.088;13.446;2023-11-21T13:55:47;5.20;99.90
10143;DHT22;5112;54.088;13.446;2023-11-21T14:05:51;5.00;99.90
10143;DHT22;5112;54.088;13.446;2023-11-21T14:15:54;4.80;99.90
10143;DHT22;5112;54.088;13.446;2023-11-21T14:25:59;4.80;99.90
10143;DHT22;5112;54.088;13.446;2023-11-21T14:36:03;4.70;99.90
10143;DHT22;5112;54.088;13.446;2023-11-21T14:46:05;4.70;99.90
10143;DHT22;5112;54.088;13.446;2023-11-21T14:56:11;4.70;99.90
10143;DHT22;5112;54.088;13.446;2023-11-21T15:06:21;4.80;99.90
10143;DHT22;5112;54.088;13.446;2023-11-21T15:16:31;4.80;99.90
10143;DHT22;5112;54.088;13.446;2023-11-21T15:26:32;4.50;99.90
10143;DHT22;5112;54.088;13.446;2023-11-21T15:36:36;4.30;99.90
10143;DHT22;5112;54.088;13.446;2023-11-21T15:46:37;4.20;99.90
10143;DHT22;5112;54.088;13.446;2023-11-21T15:56:42;4.30;99.90
10143;DHT22;5112;54.088;13.446;2023-11-21T16:06:45;4.40;99.90
10143;DHT22;5112;54.088;13.446;2023-11-21T16:16:48;4.60;99.90
10143;DHT22;5112;54.088;13.446;2023-11-21T16:26:50;4.30;99.90
10143;DHT22;5112;54.088;13.446;2023-11-21T16:36:54;4.20;99.90
10143;DHT22;5112;54.088;13.446;2023-11-21T16:46:57;4.00;99.90
10143;DHT22;5112;54.088;13.446;2023-11-21T16:57:06;4.10;99.90
10143;DHT22;5112;54.088;13.446;2023-11-21T17:07:09;4.20;99.90
10143;DHT22;5112;54.088;13.446;2023-11-21T17:17:12;4.10;99.90
10143;DHT22;5112;54.088;13.446;2023-11-21T17:27:14;4.10;99.90
10143;DHT22;5112;54.088;13.446;2023-11-21T17:37:17;4.20;99.90
10143;DHT22;5112;54.088;13.446;2023-11-21T17:47:18;3.90;99.90
10143;DHT22;5112;54.088;13.446;2023-11-21T17:57:26;4.00;99.90
10143;DHT22;5112;54.088;13.446;2023-11-21T18:07:28;4.10;99.90
10143;DHT22;5112;54.088;13.446;2023-11-21T18:17:31;4.00;99.90
10143;DHT22;5112;54.088;13.446;2023-11-21T18:27:33;4.00;99.90
10143;DHT22;5112;54.088;13.446;2023-11-21T18:37:37;4.00;99.90
10143;DHT22;5112;54.088;13.446;2023-11-21T18:47:39;3.90;99.90
10143;DHT22;5112;54.088;13.446;2023-11-21T18:57:43;3.90;99.90
10143;DHT22;5112;54.088;13.446;2023-11-21T19:07:46;3.70;99.90
10143;DHT22;5112;54.088;13.446;2023-11-21T19:17:49;3.60;99.90
10143;DHT22;5112;54.088;13.446;2023-11-21T19:27:50;3.70;99.90
10143;DHT22;5112;54.088;13.446;2023-11-21T19:37:53;3.70;99.90
10143;DHT22;5112;54.088;13.446;2023-11-21T19:47:55;3.70;99.90
10143;DHT22;5112;54.088;13.446;2023-11-21T19:57:58;3.70;99.90
10143;DHT22;5112;54.088;13.446;2023-11-21T20:08:01;3.60;99.90
10143;DHT22;5112;54.088;13.446;2023-11-21T20:18:05;3.60;99.90
10143;DHT22;5112;54.088;13.446;2023-11-21T20:28:07;3.70;99.90
10143;DHT22;5112;54.088;13.446;2023-11-21T20:38:11;3.70;99.90
10143;DHT22;5112;54.088;13.446;2023-11-21T20:48:13;4.60;99.90
10143;DHT22;5112;54.088;13.446;2023-11-21T20:58:16;5.00;99.90
10143;DHT22;5112;54.088;13.446;2023-11-21T21:08:18;4.10;99.90
10143;DHT22;5112;54.088;13.446;2023-11-21T21:18:21;3.40;99.90
10143;DHT22;5112;54.088;13.446;2023-11-21T21:28:26;3.00;99.90
10143;DHT22;5112;54.088;13.446;2023-11-21T21:38:29;2.80;99.90
10143;DHT22;5112;54.088;13.446;2023-11-21T21:48:31;2.60;99.90
10143;DHT22;5112;54.088;13.446;2023-11-21T21:58:34;2.40;99.90
10143;DHT22;5112;54.088;13.446;2023-11-21T22:08:36;2.40;99.90
10143;DHT22;5112;54.088;13.446;2023-11-21T22:18:39;2.60;99.90
10143;DHT22;5112;54.088;13.446;2023-11-21T22:28:41;2.90;99.90
10143;DHT22;5112;54.088;13.446;2023-11-21T22:38:44;3.40;99.90
10143;DHT22;5112;54.088;13.446;2023-11-21T22:48:46;3.10;99.90
10143;DHT22;5112;54.088;13.446;2023-11-21T22:58:51;3.30;99.90
10143;DHT22;5112;54.088;13.446;2023-11-21T23:08:52;3.00;99.90
10143;DHT22;5112;54.088;13.446;2023-11-21T23:18:55;3.00;99.90
10143;DHT22;5112;54.088;13.446;2023-11-21T23:28:57;3.00;99.90
10143;DHT22;5112;54.088;13.446;2023-11-21T23:39:00;3.00;99.90
10143;DHT22;5112;54.088;13.446;2023-11-21T23:49:04;3.00;99.90
10143;DHT22;5112;54.088;13.446;2023-11-21T23:59:07;3.00;99.90
